Washington, DC

10:33 AM EDT on June 30, 2015 (GMT -0400)
Eckington Pl, NE | | Change Station
CLOSE
Current Station
Personal Weather Station
Location: Washington, DC
Elevation: 90 ft
Nearby Weather Stations

Elev 90 ft 38.91 °N, 77.01 °W | Updated 4 minutes ago

Overcast
Overcast
76.1 °F
Feels Like 76 °F
N
3.0
Wind Variable Wind from SW
Gusts 10.0 mph

Today
High -- | Low -- °F
--% Chance of Precip.
Yesterday
High -- | Low -- °F
Precip. -- in
5:45 AM 8:37 PM
Waxing Gibbous, 97% visible
Pressure 29.92 in
Visibility 10.0 miles
Clouds Few 3500 ft
Mostly Cloudy 9500 ft
Overcast 14000 ft
Heat Index 76 °F
Dew Point 72 °F
Humidity 88%
Rainfall -999.00 in
Snow Depth Not available.
UV 2 out of 12
Pollen 4.20 out of 12
Air Quality Not available.
Flu Activity Sporadic
METAR KDCA 301352Z 19005KT 10SM FEW035 BKN095 OVC140 26/22 A2992 RMK AO2 RAB10E23 SLP131 P0000 T02560217

More Conditions Fewer Conditions

Pressure 29.92 in
Visibility 10.0 miles
Clouds Few 3500 ft
Mostly Cloudy 9500 ft
Overcast 14000 ft
Heat Index 76 °F
Dew Point 72 °F
Humidity 88%
Rainfall -999.00 in
Snow Depth Not available.
UV 2 out of 12
Pollen 4.20 out of 12
Air Quality Not available.
Flu Activity Sporadic
METAR KDCA 301352Z 19005KT 10SM FEW035 BKN095 OVC140 26/22 A2992 RMK AO2 RAB10E23 SLP131 P0000 T02560217

More Conditions Fewer Conditions

10-Day Weather Forecast

×

Almanac

Astronomy

Jun. 30, 2015 Rise Set
Actual Time
Civil Twilight
Nautical Twilight
Astronomical Twilight
Moon
Length of Visible Light
Length of Day
Tomorrow will be .
, % of the Moon is Illuminated

Today's Extremes

State Highs State Lows

Community

WunderPhotos

Upload Photos

1,834,008 photos uploaded!

WunderBlogs® & News

Nearby

Air Quality

  Air Quality AQ Index Pollutant
Not available.

Snow Depth

Station Depth Elevation

Earthquake Activity

City Distance Mag. Time & Date
Minimum magnitude displayed is 2.5.

Coastal Water Temperatures

Place Temperature

Stations

Nearby Weather Stations

Station Location Temp. Windchill Dew Point Humidity Wind Precip. Elev Updated Type